createdAt,value
2023-12-07T00:02:33.162Z,2.08
2023-12-07T00:07:35.343Z,1.70
2023-12-07T00:12:37.466Z,3.38
2023-12-07T00:17:39.543Z,3.17
2023-12-07T00:22:42.853Z,3.17
2023-12-07T00:27:44.976Z,1.08
2023-12-07T00:32:47.719Z,1.50
2023-12-07T00:37:49.976Z,4.40
2023-12-07T00:42:52.029Z,2.40
2023-12-07T00:47:54.262Z,2.50
2023-12-07T00:52:56.402Z,1.77
2023-12-07T00:57:58.628Z,3.53
2023-12-07T01:03:01.385Z,1.77
2023-12-07T01:08:03.458Z,4.15
2023-12-07T01:13:05.553Z,2.55
2023-12-07T01:18:07.905Z,1.38
2023-12-07T01:23:10.984Z,1.80
2023-12-07T01:28:14.088Z,1.42
2023-12-07T01:33:16.568Z,1.23
2023-12-07T01:38:18.713Z,1.63
2023-12-07T01:43:23.149Z,0.55
2023-12-07T01:48:29.940Z,0.90
2023-12-07T01:53:32.203Z,0.60
2023-12-07T01:58:34.932Z,0.77
2023-12-07T02:03:38.189Z,1.70
2023-12-07T02:08:42.870Z,1.55
2023-12-07T02:13:45.515Z,0.68
2023-12-07T02:18:55.139Z,0.88
2023-12-07T02:23:58.900Z,0.50
2023-12-07T02:29:00.958Z,0.55
2023-12-07T02:34:03.237Z,0.55
2023-12-07T02:39:08.025Z,0.47
2023-12-07T02:44:10.396Z,1.20
2023-12-07T02:49:12.479Z,0.68
2023-12-07T02:54:14.605Z,0.38
2023-12-07T02:59:16.665Z,0.50
2023-12-07T03:04:18.963Z,0.75
2023-12-07T03:09:21.029Z,0.55
2023-12-07T03:14:23.049Z,0.82
2023-12-07T03:19:25.177Z,1.20
2023-12-07T03:24:27.354Z,0.40
2023-12-07T03:29:29.490Z,0.65
2023-12-07T03:34:31.547Z,0.77
2023-12-07T03:39:34.243Z,0.65
2023-12-07T03:44:36.603Z,0.30
2023-12-07T03:49:39.910Z,0.63
2023-12-07T03:54:42.003Z,0.65
2023-12-07T03:59:44.071Z,0.47
2023-12-07T04:04:46.145Z,0.65
2023-12-07T04:09:48.214Z,0.30
2023-12-07T04:14:51.708Z,0.20
2023-12-07T04:19:53.916Z,0.80
2023-12-07T04:24:55.935Z,0.47
2023-12-07T04:29:58.190Z,0.20
2023-12-07T04:35:00.421Z,0.20
2023-12-07T04:40:02.491Z,0.20
2023-12-07T04:45:05.014Z,0.20
2023-12-07T04:50:07.404Z,0.57
2023-12-07T04:55:09.702Z,0.20
2023-12-07T05:00:12.559Z,0.20
2023-12-07T05:05:15.594Z,0.50
2023-12-07T05:10:17.717Z,0.30
2023-12-07T05:15:19.788Z,0.17
2023-12-07T05:20:23.882Z,0.35
2023-12-07T05:25:26.071Z,0.25
2023-12-07T05:30:29.024Z,0.25
2023-12-07T05:35:31.084Z,0.30
2023-12-07T05:40:34.909Z,2.47
2023-12-07T05:45:36.974Z,0.57
2023-12-07T05:50:40.717Z,1.00
2023-12-07T05:55:43.124Z,0.40
2023-12-07T06:00:48.070Z,0.98
2023-12-07T06:05:50.704Z,0.40
2023-12-07T06:10:52.836Z,0.32
2023-12-07T06:15:54.892Z,0.88
2023-12-07T06:20:57.021Z,0.50
2023-12-07T06:25:59.206Z,1.48
2023-12-07T06:31:07.398Z,1.10
2023-12-07T06:36:10.620Z,1.27
2023-12-07T06:41:12.705Z,2.08
2023-12-07T06:46:15.225Z,2.08
2023-12-07T06:51:17.323Z,1.38
2023-12-07T06:56:19.488Z,1.00
2023-12-07T07:01:21.976Z,1.67
2023-12-07T07:06:24.249Z,2.20
2023-12-07T07:11:26.296Z,1.60
2023-12-07T07:16:28.366Z,0.68
2023-12-07T07:21:30.491Z,0.65
2023-12-07T07:26:32.570Z,0.60
2023-12-07T07:31:34.706Z,0.60
2023-12-07T07:36:36.985Z,1.17
2023-12-07T07:41:39.018Z,1.38
2023-12-07T07:46:42.718Z,2.05
2023-12-07T07:51:44.794Z,2.10
2023-12-07T07:56:46.844Z,2.22
2023-12-07T08:01:49.228Z,1.50
2023-12-07T08:06:51.749Z,1.85
2023-12-07T08:11:53.807Z,1.33
2023-12-07T08:16:56.899Z,0.98
2023-12-07T08:21:58.987Z,1.00
2023-12-07T08:27:01.086Z,0.93
2023-12-07T08:32:03.291Z,0.90
2023-12-07T08:37:05.491Z,0.70
2023-12-07T08:42:07.531Z,1.15
2023-12-07T08:47:09.605Z,0.60
2023-12-07T08:52:22.669Z,0.95
2023-12-07T08:57:33.819Z,0.65
2023-12-07T09:02:45.408Z,0.68
2023-12-07T09:07:49.970Z,1.13
2023-12-07T09:12:52.159Z,2.25
2023-12-07T09:17:54.281Z,0.77
2023-12-07T09:22:58.384Z,0.60
2023-12-07T09:28:00.585Z,0.80
2023-12-07T09:33:06.036Z,0.60
2023-12-07T09:38:08.511Z,0.65
2023-12-07T09:43:10.814Z,0.82
2023-12-07T09:48:13.353Z,0.50
2023-12-07T09:53:15.523Z,1.30
2023-12-07T09:58:22.674Z,0.63
2023-12-07T10:03:31.838Z,0.60
2023-12-07T10:08:38.569Z,0.40
2023-12-07T10:13:42.801Z,0.50
2023-12-07T10:18:46.160Z,0.40
2023-12-07T10:23:49.466Z,0.40
2023-12-07T10:28:56.170Z,0.40
2023-12-07T10:33:59.532Z,0.40
2023-12-07T10:39:01.734Z,0.30
2023-12-07T10:44:07.915Z,0.73
2023-12-07T10:49:21.922Z,0.20
2023-12-07T10:54:40.924Z,0.20
2023-12-07T10:59:44.504Z,0.40
2023-12-07T11:04:47.334Z,0.20
2023-12-07T11:10:08.470Z,0.40
2023-12-07T11:15:11.202Z,0.20
2023-12-07T11:20:20.320Z,0.30
2023-12-07T11:25:22.478Z,0.35
2023-12-07T11:30:25.871Z,0.40
2023-12-07T11:35:27.934Z,0.35
2023-12-07T11:40:32.074Z,0.17
2023-12-07T11:45:42.803Z,0.30
2023-12-07T11:51:07.021Z,0.30
2023-12-07T11:56:14.684Z,0.30
2023-12-07T12:01:18.431Z,0.50
2023-12-07T12:06:20.640Z,0.40
2023-12-07T12:11:22.798Z,0.32
2023-12-07T12:16:25.196Z,0.20
2023-12-07T12:21:27.281Z,0.17
2023-12-07T12:26:30.230Z,0.40
2023-12-07T12:31:32.513Z,0.30
2023-12-07T12:36:34.763Z,0.60
2023-12-07T12:41:37.666Z,0.82
2023-12-07T12:46:39.859Z,0.40
2023-12-07T12:51:41.942Z,0.50
2023-12-07T12:56:45.117Z,0.50
2023-12-07T13:01:47.533Z,0.50
2023-12-07T13:06:49.811Z,0.63
2023-12-07T13:11:52.053Z,0.30
2023-12-07T13:16:54.634Z,0.30
2023-12-07T13:21:56.783Z,0.47
2023-12-07T13:27:01.572Z,0.50
2023-12-07T13:32:07.029Z,0.30
2023-12-07T13:37:09.154Z,0.40
2023-12-07T13:42:11.437Z,0.30
2023-12-07T13:47:14.014Z,0.20
2023-12-07T13:52:17.673Z,0.20
2023-12-07T13:57:27.912Z,0.43
2023-12-07T14:02:30.204Z,0.52
2023-12-07T14:07:32.428Z,0.30
2023-12-07T14:12:34.683Z,0.30
2023-12-07T14:17:47.392Z,0.20
2023-12-07T14:22:59.096Z,0.52
2023-12-07T14:28:01.307Z,0.60
2023-12-07T14:33:03.616Z,0.40
2023-12-07T14:38:05.830Z,0.63
2023-12-07T14:43:07.894Z,1.80
2023-12-07T14:48:10.233Z,1.83
2023-12-07T14:53:12.420Z,2.15
2023-12-07T14:58:14.860Z,1.55
2023-12-07T15:03:17.165Z,1.38
2023-12-07T15:08:19.249Z,5.40
2023-12-07T15:13:21.563Z,3.92
2023-12-07T15:18:23.811Z,5.25
2023-12-07T15:23:26.078Z,5.70
2023-12-07T15:28:28.213Z,6.95
2023-12-07T15:33:31.510Z,6.78
2023-12-07T15:38:33.857Z,6.78
2023-12-07T15:43:36.064Z,7.75
2023-12-07T15:48:38.325Z,8.55
2023-12-07T15:53:40.617Z,7.43
2023-12-07T15:58:42.981Z,9.23
2023-12-07T16:03:45.214Z,8.98
2023-12-07T16:08:47.317Z,9.13
2023-12-07T16:13:49.463Z,9.25
2023-12-07T16:18:51.672Z,10.15
2023-12-07T16:23:53.768Z,14.55
2023-12-07T16:28:55.830Z,13.45
2023-12-07T16:34:00.542Z,13.27
2023-12-07T16:39:04.821Z,15.07
2023-12-07T16:44:07.148Z,16.08
2023-12-07T16:49:09.726Z,12.85
2023-12-07T16:54:11.953Z,13.20
2023-12-07T16:59:14.099Z,11.70
2023-12-07T17:04:16.236Z,17.80
2023-12-07T17:09:18.357Z,17.15
2023-12-07T17:14:20.548Z,16.52
2023-12-07T17:19:22.995Z,13.70
2023-12-07T17:24:25.226Z,13.10
2023-12-07T17:29:27.313Z,14.90
2023-12-07T17:34:32.594Z,13.98
2023-12-07T17:39:35.991Z,14.57
2023-12-07T17:44:38.091Z,11.68
2023-12-07T17:49:40.484Z,15.15
2023-12-07T17:54:43.660Z,12.25
2023-12-07T17:59:45.848Z,18.27
2023-12-07T18:04:47.925Z,19.45
2023-12-07T18:09:50.508Z,12.82
2023-12-07T18:14:52.735Z,12.02
2023-12-07T18:19:54.872Z,15.80
2023-12-07T18:24:56.930Z,13.60
2023-12-07T18:29:59.458Z,16.75
2023-12-07T18:35:01.622Z,12.20
2023-12-07T18:40:03.929Z,17.42
2023-12-07T18:45:06.617Z,15.23
2023-12-07T18:50:09.088Z,14.82
2023-12-07T18:55:13.157Z,15.80
2023-12-07T19:00:15.634Z,16.40
2023-12-07T19:05:17.816Z,14.38
2023-12-07T19:10:19.995Z,15.07
2023-12-07T19:15:22.451Z,14.73
2023-12-07T19:20:24.657Z,15.95
2023-12-07T19:25:26.743Z,15.38
2023-12-07T19:30:28.841Z,17.50
2023-12-07T19:35:31.181Z,12.50
2023-12-07T19:40:33.274Z,13.27
2023-12-07T19:45:35.823Z,14.15
2023-12-07T19:50:38.215Z,16.58
2023-12-07T19:55:40.389Z,15.27
2023-12-07T20:00:42.489Z,18.35
2023-12-07T20:05:44.567Z,16.35
2023-12-07T20:10:46.617Z,13.50
2023-12-07T20:15:49.063Z,12.32
2023-12-07T20:20:51.173Z,17.35
2023-12-07T20:25:53.821Z,15.00
2023-12-07T20:30:55.889Z,15.95
2023-12-07T20:35:58.035Z,14.63
2023-12-07T20:41:00.211Z,23.35
2023-12-07T20:46:02.357Z,17.23
2023-12-07T20:51:04.878Z,20.80
2023-12-07T20:56:07.445Z,15.88
2023-12-07T21:01:09.492Z,17.10
2023-12-07T21:06:25.626Z,15.10
2023-12-07T21:11:29.344Z,13.82
2023-12-07T21:16:31.600Z,11.75
2023-12-07T21:21:33.655Z,12.00
2023-12-07T21:26:35.770Z,14.13
2023-12-07T21:31:37.969Z,14.85
2023-12-07T21:36:40.139Z,14.77
2023-12-07T21:41:50.160Z,10.70
2023-12-07T21:46:52.364Z,14.52
2023-12-07T21:51:54.391Z,10.45
2023-12-07T21:56:56.817Z,10.68
2023-12-07T22:01:58.892Z,14.10
2023-12-07T22:07:01.278Z,10.38
2023-12-07T22:12:03.557Z,13.23
2023-12-07T22:17:06.607Z,14.25
2023-12-07T22:22:08.684Z,12.90
2023-12-07T22:27:10.950Z,13.88
2023-12-07T22:32:13.052Z,12.45
2023-12-07T22:37:15.139Z,9.55
2023-12-07T22:42:17.233Z,11.20
2023-12-07T22:47:19.337Z,14.77
2023-12-07T22:52:22.112Z,13.25
2023-12-07T22:57:24.479Z,12.20
2023-12-07T23:02:26.813Z,15.60
2023-12-07T23:07:29.060Z,11.00
2023-12-07T23:12:31.085Z,7.18
2023-12-07T23:17:33.289Z,10.50
2023-12-07T23:22:35.393Z,8.32
2023-12-07T23:27:37.459Z,12.55
2023-12-07T23:32:39.738Z,11.88
2023-12-07T23:37:41.997Z,12.52
2023-12-07T23:42:44.340Z,11.13
2023-12-07T23:47:46.669Z,11.00
2023-12-07T23:52:48.808Z,10.45
2023-12-07T23:57:50.870Z,11.32
